Time;durP1;ratioP1;P1;durP2;ratioP2;P2;SDS_P1;SDS_P2;PMS_P1;PMS_P2;Temp;Humidity;BMP_temperature;BMP_pressure;BME280_temperature;BME280_humidity;BME280_pressure;Samples;Min_cycle;Max_cycle;Signal;HPM_P1;HPM_P2
2021/03/16 00:00:24;;;;;;;0.20;0.10;;;4.50;74.20;;;;;;5016246;28;20129;-78
2021/03/16 00:02:50;;;;;;;1.02;0.35;;;4.50;74.10;;;;;;5014845;28;20029;-79
2021/03/16 00:05:16;;;;;;;0.60;0.13;;;4.50;74.00;;;;;;5014096;28;20034;-79
2021/03/16 00:07:41;;;;;;;0.10;0.00;;;4.40;74.20;;;;;;5015877;28;20037;-81
2021/03/16 00:10:08;;;;;;;0.93;0.08;;;4.40;74.20;;;;;;5014442;28;20021;-79
2021/03/16 00:12:33;;;;;;;0.40;0.20;;;4.40;74.20;;;;;;5014593;28;20030;-78
2021/03/16 00:14:59;;;;;;;0.45;0.22;;;4.40;74.60;;;;;;5014840;28;20029;-78
2021/03/16 00:17:25;;;;;;;0.20;0.10;;;4.30;74.90;;;;;;5014465;28;20026;-81
2021/03/16 00:19:50;;;;;;;0.57;0.38;;;4.30;75.60;;;;;;5014619;28;20172;-83
2021/03/16 00:22:16;;;;;;;0.80;0.20;;;4.30;76.70;;;;;;5014286;28;20026;-82
2021/03/16 00:24:42;;;;;;;0.30;0.20;;;4.10;76.40;;;;;;5014133;28;20362;-78
2021/03/16 00:27:07;;;;;;;1.17;0.30;;;4.00;78.60;;;;;;5014030;28;20034;-79
2021/03/16 00:29:33;;;;;;;0.65;0.30;;;3.80;79.10;;;;;;5014507;28;20029;-78
2021/03/16 00:31:59;;;;;;;1.13;0.43;;;3.70;79.80;;;;;;5014331;28;20026;-78
2021/03/16 00:34:24;;;;;;;0.70;0.40;;;3.50;80.50;;;;;;5015480;28;20053;-79
2021/03/16 00:36:50;;;;;;;1.60;0.47;;;3.40;80.70;;;;;;5014131;28;20036;-78
2021/03/16 00:39:16;;;;;;;1.38;0.22;;;3.20;81.60;;;;;;5014109;28;20109;-79
2021/03/16 00:41:41;;;;;;;0.75;0.30;;;3.10;82.30;;;;;;5014145;28;20448;-79
2021/03/16 00:44:08;;;;;;;0.57;0.20;;;3.00;83.00;;;;;;5014310;28;20400;-79
2021/03/16 00:46:35;;;;;;;0.65;0.30;;;3.00;83.50;;;;;;5015596;28;20018;-79
2021/03/16 00:49:00;;;;;;;1.55;0.30;;;2.80;84.10;;;;;;5013841;28;20022;-79
2021/03/16 00:51:27;;;;;;;0.70;0.20;;;2.60;84.90;;;;;;5013986;28;20048;-79
2021/03/16 00:53:53;;;;;;;0.50;0.30;;;2.50;85.50;;;;;;5014036;28;20034;-81
2021/03/16 00:56:19;;;;;;;0.30;0.13;;;2.40;86.80;;;;;;5013327;28;20053;-78
2021/03/16 00:58:44;;;;;;;1.30;0.20;;;2.20;87.30;;;;;;5013855;28;20038;-80
2021/03/16 01:01:10;;;;;;;0.98;0.22;;;2.10;87.60;;;;;;5013509;28;20036;-84
2021/03/16 01:03:36;;;;;;;0.93;0.30;;;2.00;88.20;;;;;;5013788;28;20368;-79
2021/03/16 01:06:02;;;;;;;1.10;0.30;;;1.90;89.20;;;;;;5013529;28;20030;-79
2021/03/16 01:08:28;;;;;;;1.30;0.25;;;1.80;90.00;;;;;;5013489;28;20531;-78
2021/03/16 01:10:55;;;;;;;0.82;0.20;;;1.70;90.10;;;;;;5013340;28;20030;-79
2021/03/16 01:13:21;;;;;;;0.70;0.20;;;1.60;90.40;;;;;;5013477;28;20030;-79
2021/03/16 01:15:47;;;;;;;0.20;0.10;;;1.50;90.80;;;;;;5013772;28;20496;-78
2021/03/16 01:18:13;;;;;;;2.03;0.30;;;1.40;90.70;;;;;;5014731;28;20061;-79
2021/03/16 01:20:39;;;;;;;0.50;0.30;;;1.40;90.60;;;;;;5013150;28;20033;-78
2021/03/16 01:23:06;;;;;;;0.65;0.32;;;1.40;91.10;;;;;;5014379;28;20080;-79
2021/03/16 01:25:31;;;;;;;1.20;0.20;;;1.30;91.20;;;;;;5014435;28;20080;-79
2021/03/16 01:27:57;;;;;;;4.82;0.73;;;1.40;91.50;;;;;;5014404;28;20507;-81
2021/03/16 01:30:24;;;;;;;1.20;0.63;;;1.30;91.90;;;;;;5014819;28;20079;-79
2021/03/16 01:32:50;;;;;;;0.85;0.40;;;1.50;91.80;;;;;;5012913;28;20026;-79
2021/03/16 01:35:16;;;;;;;0.77;0.20;;;1.50;91.50;;;;;;5014402;28;20040;-79
2021/03/16 01:37:43;;;;;;;0.73;0.30;;;1.60;91.40;;;;;;5013093;28;20026;-80
2021/03/16 01:40:11;;;;;;;1.35;0.40;;;1.90;91.20;;;;;;5013047;28;20041;-81
2021/03/16 01:42:37;;;;;;;0.40;0.20;;;2.30;90.40;;;;;;5012983;28;20040;-84
2021/03/16 01:45:10;;;;;;;0.98;0.20;;;2.60;89.70;;;;;;5014404;28;20100;-79
2021/03/16 01:47:40;;;;;;;0.35;0.10;;;2.80;87.90;;;;;;5012948;28;20470;-78
2021/03/16 01:50:12;;;;;;;0.30;0.20;;;3.10;86.20;;;;;;5012772;28;20034;-79
2021/03/16 01:52:38;;;;;;;0.73;0.22;;;3.20;85.30;;;;;;5013051;28;20417;-79
2021/03/16 01:55:05;;;;;;;0.40;0.20;;;3.30;84.30;;;;;;5012790;28;20074;-78
2021/03/16 01:57:37;;;;;;;2.22;0.35;;;3.40;83.20;;;;;;5012903;28;20033;-79
2021/03/16 02:00:04;;;;;;;0.73;0.38;;;3.30;83.20;;;;;;5012536;28;20084;-79
2021/03/16 02:02:29;;;;;;;0.88;0.20;;;3.30;83.40;;;;;;5012697;28;20018;-78
2021/03/16 02:04:55;;;;;;;0.57;0.17;;;3.20;84.20;;;;;;5012482;28;20487;-78
2021/03/16 02:07:32;;;;;;;0.85;0.30;;;3.00;85.10;;;;;;5013812;28;20528;-78
2021/03/16 02:10:16;;;;;;;5.05;1.77;;;2.70;86.40;;;;;;5012486;28;20116;-78
2021/03/16 02:12:56;;;;;;;1.42;0.55;;;2.50;88.30;;;;;;5013938;28;20108;-78
2021/03/16 02:15:29;;;;;;;1.45;0.30;;;2.20;89.90;;;;;;5012141;28;20040;-80
2021/03/16 02:17:58;;;;;;;1.92;0.25;;;1.90;90.60;;;;;;5012067;28;20484;-79
2021/03/16 02:20:58;;;;;;;1.17;0.40;;;1.70;91.30;;;;;;5012074;28;20095;-79
2021/03/16 02:23:41;;;;;;;3.08;0.32;;;1.50;91.90;;;;;;5012171;28;20034;-78
2021/03/16 02:26:34;;;;;;;2.35;0.40;;;1.50;91.90;;;;;;5013299;28;20029;-79
2021/03/16 02:29:09;;;;;;;0.93;0.32;;;1.40;92.00;;;;;;5012128;28;20025;-79
2021/03/16 02:31:39;;;;;;;2.65;0.60;;;1.40;92.30;;;;;;5013375;28;20026;-78
2021/03/16 02:34:06;;;;;;;0.90;0.40;;;1.30;92.50;;;;;;5012254;28;20022;-78
2021/03/16 02:36:36;;;;;;;1.58;0.38;;;1.30;92.50;;;;;;5011643;28;20052;-78
2021/03/16 02:39:05;;;;;;;0.98;0.32;;;1.30;92.70;;;;;;5013167;28;20030;-80
2021/03/16 02:41:31;;;;;;;0.75;0.40;;;1.20;92.90;;;;;;5011645;28;20042;-79
2021/03/16 02:43:59;;;;;;;0.45;0.25;;;1.10;93.30;;;;;;5013045;28;20406;-78
2021/03/16 02:46:26;;;;;;;0.70;0.40;;;1.10;93.40;;;;;;5011797;28;20034;-82
2021/03/16 02:48:54;;;;;;;1.33;0.50;;;1.00;93.60;;;;;;5011667;28;20033;-79
2021/03/16 02:51:22;;;;;;;1.95;0.40;;;0.90;94.00;;;;;;5011727;28;20029;-79
2021/03/16 02:53:53;;;;;;;1.58;0.80;;;1.00;94.20;;;;;;5011811;28;20493;-81
2021/03/16 02:56:20;;;;;;;1.70;0.52;;;1.00;94.20;;;;;;5011496;28;20133;-78
2021/03/16 02:58:48;;;;;;;0.80;0.40;;;0.90;94.10;;;;;;5011689;28;20030;-79
2021/03/16 03:01:15;;;;;;;0.98;0.50;;;1.00;94.20;;;;;;5011520;28;20034;-78
2021/03/16 03:03:43;;;;;;;2.05;0.60;;;1.10;93.90;;;;;;5012073;28;20052;-78
2021/03/16 03:06:12;;;;;;;1.88;0.70;;;1.00;93.90;;;;;;5011674;28;20026;-80
2021/03/16 03:08:39;;;;;;;2.10;0.60;;;1.10;93.70;;;;;;5011618;28;20026;-80
2021/03/16 03:11:05;;;;;;;2.25;0.70;;;1.00;93.90;;;;;;5011730;28;20029;-78
2021/03/16 03:13:31;;;;;;;3.03;0.45;;;1.00;93.80;;;;;;5012721;28;20469;-80
2021/03/16 03:15:56;;;;;;;1.67;0.55;;;1.00;93.70;;;;;;5012693;28;20030;-80
2021/03/16 03:18:22;;;;;;;1.73;0.93;;;0.90;93.50;;;;;;5011407;28;20469;-81
2021/03/16 03:20:47;;;;;;;1.70;0.80;;;0.80;94.00;;;;;;5012581;28;20049;-79
2021/03/16 03:23:28;;;;;;;2.30;0.73;;;0.70;94.10;;;;;;5011522;28;20413;-79
2021/03/16 03:26:28;;;;;;;1.17;0.40;;;0.60;94.40;;;;;;5011121;28;20481;-81
2021/03/16 03:28:56;;;;;;;1.08;0.50;;;0.50;94.80;;;;;;5005168;28;20100;-81
2021/03/16 03:31:22;;;;;;;1.23;0.85;;;0.50;94.80;;;;;;5012592;28;20033;-80
2021/03/16 03:33:49;;;;;;;1.10;0.52;;;0.40;94.90;;;;;;5011524;28;20050;-80
2021/03/16 03:36:14;;;;;;;1.67;0.52;;;0.40;95.00;;;;;;5011213;28;20600;-80
2021/03/16 03:38:42;;;;;;;1.55;0.80;;;0.50;95.00;;;;;;5011980;28;20038;-78
2021/03/16 03:41:08;;;;;;;1.85;0.60;;;0.40;95.10;;;;;;5016637;28;20050;-79
2021/03/16 03:43:36;;;;;;;2.45;0.70;;;0.40;95.10;;;;;;5015142;28;20032;-78
2021/03/16 03:46:02;;;;;;;3.17;0.90;;;0.40;95.30;;;;;;5014928;28;20132;-80
2021/03/16 03:48:28;;;;;;;2.63;0.68;;;0.40;95.60;;;;;;5016223;28;20057;-78
2021/03/16 03:50:57;;;;;;;1.20;0.45;;;0.40;95.70;;;;;;5015035;28;20025;-80
2021/03/16 03:53:25;;;;;;;1.40;0.60;;;0.30;95.70;;;;;;5016234;28;20106;-79
2021/03/16 03:55:52;;;;;;;2.03;0.80;;;0.20;95.80;;;;;;5014477;28;20077;-78
2021/03/16 03:58:20;;;;;;;0.88;0.65;;;0.20;95.80;;;;;;4998873;28;20068;-78
2021/03/16 04:00:47;;;;;;;3.78;0.75;;;0.20;96.00;;;;;;5014410;28;20456;-78
2021/03/16 04:03:13;;;;;;;1.65;1.40;;;0.20;95.80;;;;;;5015168;28;20041;-78
2021/03/16 04:05:40;;;;;;;1.77;1.60;;;0.10;96.00;;;;;;5014507;28;20034;-80
2021/03/16 04:08:07;;;;;;;2.53;2.17;;;0.00;96.30;;;;;;5014370;28;20033;-81
2021/03/16 04:10:35;;;;;;;3.15;2.75;;;0.10;96.20;;;;;;5014650;28;20032;-80
2021/03/16 04:13:05;;;;;;;1.88;1.00;;;0.00;96.20;;;;;;5014302;28;20497;-81
2021/03/16 04:15:32;;;;;;;1.88;1.40;;;0.00;96.20;;;;;;5014514;28;20025;-79
2021/03/16 04:17:58;;;;;;;2.83;1.35;;;0.00;96.30;;;;;;5014318;28;20022;-78
2021/03/16 04:20:24;;;;;;;5.07;3.40;;;0.00;96.60;;;;;;5014279;28;20040;-78
2021/03/16 04:22:50;;;;;;;3.00;0.88;;;0.00;96.50;;;;;;5014305;28;20053;-78
2021/03/16 04:25:16;;;;;;;2.70;1.80;;;-0.10;96.70;;;;;;5015425;28;20030;-80
2021/03/16 04:27:42;;;;;;;3.30;2.28;;;-0.10;96.70;;;;;;5015222;28;20022;-79
2021/03/16 04:30:08;;;;;;;1.73;1.13;;;-0.20;96.80;;;;;;5014129;28;20033;-78
2021/03/16 04:32:34;;;;;;;2.08;0.80;;;-0.20;96.80;;;;;;5014016;28;20108;-78
2021/03/16 04:35:00;;;;;;;2.88;0.73;;;-0.30;97.10;;;;;;5013892;28;20081;-78
2021/03/16 04:37:26;;;;;;;4.93;2.70;;;-0.30;97.40;;;;;;5013916;28;20076;-78
2021/03/16 04:39:52;;;;;;;1.80;1.23;;;-0.30;97.40;;;;;;5013967;28;20432;-81
2021/03/16 04:42:17;;;;;;;3.20;1.10;;;-0.30;97.60;;;;;;5014048;28;20105;-81
2021/03/16 04:44:43;;;;;;;53.03;25.10;;;-0.30;97.60;;;;;;5013853;28;20034;-81
2021/03/16 04:47:09;;;;;;;28.42;13.38;;;-0.40;97.50;;;;;;5013789;28;20021;-79
2021/03/16 04:49:34;;;;;;;42.13;19.10;;;-0.40;97.40;;;;;;5014764;28;20109;-80
2021/03/16 04:52:00;;;;;;;42.70;18.33;;;-0.30;97.60;;;;;;5014999;28;20033;-78
2021/03/16 04:54:26;;;;;;;29.17;13.35;;;-0.30;97.40;;;;;;5013357;28;20384;-82
2021/03/16 04:56:52;;;;;;;15.82;7.10;;;-0.30;97.00;;;;;;5014779;28;20040;-78
2021/03/16 04:59:18;;;;;;;12.20;5.55;;;-0.30;96.60;;;;;;5016161;28;20030;-82
2021/03/16 05:01:44;;;;;;;11.80;4.50;;;-0.40;97.00;;;;;;5013350;28;20073;-81
2021/03/16 05:04:09;;;;;;;7.13;2.63;;;-0.30;97.10;;;;;;5014943;28;20462;-79
2021/03/16 05:06:35;;;;;;;7.10;2.35;;;0.00;99.90;;;;;;5018277;28;20084;-80
2021/03/16 05:09:00;;;;;;;3.15;1.67;;;0.10;97.20;;;;;;5013267;28;20028;-80
2021/03/16 05:11:26;;;;;;;2.45;1.45;;;0.00;96.80;;;;;;5013521;28;20045;-78
2021/03/16 05:13:52;;;;;;;3.67;1.70;;;-0.10;96.60;;;;;;5013188;28;20065;-80
2021/03/16 05:16:18;;;;;;;5.65;2.33;;;-0.10;97.00;;;;;;5013217;28;20038;-80
2021/03/16 05:18:44;;;;;;;4.00;2.05;;;-0.10;97.00;;;;;;5014500;28;20029;-80
2021/03/16 05:21:09;;;;;;;3.85;1.33;;;-0.10;97.10;;;;;;5013014;28;20037;-79
2021/03/16 05:23:35;;;;;;;4.70;1.90;;;-0.10;97.20;;;;;;5014128;28;20047;-80
2021/03/16 05:26:01;;;;;;;4.18;2.13;;;-0.20;96.90;;;;;;5012971;28;20056;-78
2021/03/16 05:28:26;;;;;;;4.05;2.42;;;-0.30;97.00;;;;;;5013189;28;20387;-80
2021/03/16 05:30:52;;;;;;;5.28;2.60;;;-0.30;97.00;;;;;;5012914;28;20044;-80
2021/03/16 05:33:19;;;;;;;9.55;4.60;;;-0.30;96.70;;;;;;5012662;28;20140;-81
2021/03/16 05:35:45;;;;;;;7.82;5.07;;;-0.30;96.80;;;;;;5012948;28;20129;-81
2021/03/16 05:38:11;;;;;;;6.95;3.90;;;-0.30;96.90;;;;;;5015114;28;20030;-80
2021/03/16 05:40:36;;;;;;;6.60;2.78;;;-0.30;97.30;;;;;;5013672;28;20044;-80
2021/03/16 05:43:02;;;;;;;6.07;4.18;;;-0.30;97.40;;;;;;5014364;28;20029;-80
2021/03/16 05:45:28;;;;;;;5.90;3.75;;;-0.20;97.40;;;;;;5012871;28;20485;-80
2021/03/16 05:47:55;;;;;;;3.85;2.45;;;0.00;97.20;;;;;;5012754;28;20026;-80
2021/03/16 05:50:21;;;;;;;7.55;4.72;;;0.10;97.10;;;;;;5013175;28;20033;-80
2021/03/16 05:52:47;;;;;;;5.20;2.60;;;0.20;97.00;;;;;;5012592;28;20042;-80
2021/03/16 05:55:13;;;;;;;4.75;3.53;;;0.10;97.10;;;;;;5012554;28;20062;-79
2021/03/16 05:57:40;;;;;;;4.30;1.90;;;0.20;96.90;;;;;;5012415;28;20034;-81
2021/03/16 06:00:07;;;;;;;17.25;9.98;;;0.30;96.70;;;;;;5012287;28;20042;-80
2021/03/16 06:02:37;;;;;;;9.88;5.57;;;0.50;96.20;;;;;;5012869;28;20022;-79
2021/03/16 06:05:07;;;;;;;6.85;1.50;;;0.60;95.40;;;;;;5012300;28;20358;-79
2021/03/16 06:07:32;;;;;;;3.53;1.45;;;0.80;95.10;;;;;;5012174;28;20032;-80
2021/03/16 06:09:58;;;;;;;9.23;2.40;;;0.90;94.90;;;;;;5012147;28;20018;-82
2021/03/16 06:12:31;;;;;;;3.65;1.20;;;1.00;94.50;;;;;;5012097;28;20061;-83
2021/03/16 06:14:57;;;;;;;3.10;1.50;;;1.10;94.30;;;;;;5013273;28;20376;-80
2021/03/16 06:17:23;;;;;;;7.97;1.58;;;1.20;94.10;;;;;;5011969;28;20071;-81
2021/03/16 06:19:49;;;;;;;2.67;1.13;;;1.20;94.10;;;;;;5011937;28;20038;-80
2021/03/16 06:22:19;;;;;;;3.67;1.38;;;1.30;93.80;;;;;;5011788;28;20050;-80
2021/03/16 06:24:48;;;;;;;4.50;1.50;;;1.40;93.60;;;;;;5011970;28;20112;-80
2021/03/16 06:27:27;;;;;;;2.33;1.40;;;1.50;93.30;;;;;;5011740;28;20053;-79
2021/03/16 06:29:53;;;;;;;2.97;1.20;;;1.60;92.80;;;;;;5011988;28;20030;-79
2021/03/16 06:32:19;;;;;;;1.83;0.85;;;1.70;92.90;;;;;;5011572;28;20029;-79
2021/03/16 06:34:57;;;;;;;2.58;1.33;;;1.80;92.50;;;;;;5012788;28;20473;-80
2021/03/16 06:37:23;;;;;;;2.08;0.90;;;1.90;92.60;;;;;;5012774;28;20466;-79
2021/03/16 06:39:49;;;;;;;2.53;1.08;;;2.10;91.90;;;;;;5011265;28;20040;-78
2021/03/16 06:42:29;;;;;;;2.05;0.82;;;2.30;91.70;;;;;;5011763;28;20029;-79
2021/03/16 06:44:59;;;;;;;2.58;0.90;;;2.40;91.00;;;;;;5011985;28;20030;-79
2021/03/16 06:47:24;;;;;;;1.95;1.00;;;2.60;90.90;;;;;;5011886;28;20377;-78
2021/03/16 06:49:50;;;;;;;2.13;1.00;;;2.80;90.30;;;;;;5012626;28;20041;-80
2021/03/16 06:52:16;;;;;;;1.25;0.85;;;3.00;89.90;;;;;;5012640;28;20105;-78
2021/03/16 06:54:42;;;;;;;4.40;0.90;;;3.10;88.30;;;;;;5012564;28;20109;-78
2021/03/16 06:57:10;;;;;;;4.20;2.42;;;3.30;87.20;;;;;;5011480;28;20030;-78
2021/03/16 06:59:35;;;;;;;2.63;0.90;;;3.60;85.50;;;;;;5011466;28;20048;-79
2021/03/16 07:02:11;;;;;;;4.57;1.30;;;3.70;83.80;;;;;;5012773;28;20100;-80
2021/03/16 07:04:44;;;;;;;2.67;1.00;;;3.80;82.80;;;;;;5012670;28;20473;-79
2021/03/16 07:07:11;;;;;;;1.55;0.90;;;4.00;82.50;;;;;;5011495;28;20091;-79
2021/03/16 07:09:38;;;;;;;1.40;0.80;;;4.10;83.10;;;;;;5011635;28;20099;-78
2021/03/16 07:12:04;;;;;;;2.17;0.82;;;4.30;81.30;;;;;;5011506;28;20126;-78
2021/03/16 07:14:31;;;;;;;4.20;0.70;;;4.50;81.30;;;;;;5012958;28;20026;-77
2021/03/16 07:17:01;;;;;;;4.32;1.20;;;4.80;79.80;;;;;;5015390;28;20030;-78
2021/03/16 07:19:29;;;;;;;1.90;1.05;;;5.10;75.40;;;;;;5014966;28;20092;-81
2021/03/16 07:21:56;;;;;;;0.85;0.40;;;5.30;75.20;;;;;;5015528;28;20029;-83
2021/03/16 07:24:24;;;;;;;0.60;0.20;;;5.50;72.70;;;;;;5016977;28;20079;-79
2021/03/16 07:26:50;;;;;;;0.43;0.28;;;5.80;67.60;;;;;;5016197;28;20035;-78
2021/03/16 07:29:17;;;;;;;1.02;0.20;;;5.80;65.60;;;;;;5016686;28;20018;-79
2021/03/16 07:31:43;;;;;;;0.70;0.17;;;6.00;64.20;;;;;;5016384;28;20057;-80
2021/03/16 07:34:11;;;;;;;0.52;0.15;;;5.90;63.70;;;;;;5015361;28;20030;-81
2021/03/16 07:36:38;;;;;;;1.98;0.17;;;5.90;65.10;;;;;;5014607;28;20052;-77
2021/03/16 07:39:10;;;;;;;0.63;0.10;;;5.90;65.70;;;;;;5015796;28;20418;-80
2021/03/16 07:41:37;;;;;;;5.28;1.05;;;5.90;67.20;;;;;;5014552;28;20385;-77
2021/03/16 07:44:11;;;;;;;0.30;0.00;;;6.10;71.30;;;;;;5015037;28;20022;-82
2021/03/16 07:46:44;;;;;;;1.08;0.10;;;6.20;66.20;;;;;;5014329;28;20029;-82
2021/03/16 07:49:12;;;;;;;0.30;0.10;;;6.30;65.00;;;;;;5015363;28;20130;-78
2021/03/16 07:51:41;;;;;;;0.30;0.20;;;6.40;64.80;;;;;;5015377;28;20022;-80
2021/03/16 07:54:07;;;;;;;0.90;0.20;;;6.50;64.10;;;;;;5014465;28;20109;-80
2021/03/16 07:56:35;;;;;;;0.77;0.50;;;6.60;62.20;;;;;;5014936;28;20049;-80
2021/03/16 07:59:03;;;;;;;0.82;0.10;;;6.70;64.40;;;;;;5014878;28;20117;-81
2021/03/16 08:01:29;;;;;;;2.13;0.30;;;6.70;61.40;;;;;;5014754;28;20381;-80
2021/03/16 08:04:09;;;;;;;0.75;0.20;;;7.00;60.30;;;;;;5015978;28;20022;-80
2021/03/16 08:06:36;;;;;;;0.68;0.20;;;7.10;59.40;;;;;;5016049;28;20025;-80
2021/03/16 08:09:04;;;;;;;1.48;0.22;;;7.10;59.30;;;;;;5014705;28;20026;-82
2021/03/16 08:11:42;;;;;;;1.33;0.35;;;7.40;61.90;;;;;;5015192;28;20040;-81
2021/03/16 08:14:09;;;;;;;1.20;0.30;;;7.50;61.10;;;;;;5014919;28;20365;-80
2021/03/16 08:16:37;;;;;;;0.32;0.20;;;7.30;60.30;;;;;;5014762;28;20080;-79
2021/03/16 08:19:14;;;;;;;0.75;0.20;;;7.40;61.40;;;;;;5014805;28;20053;-81
2021/03/16 08:21:42;;;;;;;1.88;1.00;;;7.30;63.20;;;;;;5014820;28;20038;-79
2021/03/16 08:24:12;;;;;;;4.93;1.45;;;7.20;61.40;;;;;;5015027;28;20026;-80
2021/03/16 08:26:51;;;;;;;0.57;0.20;;;7.20;63.10;;;;;;5014500;28;20025;-79
2021/03/16 08:29:26;;;;;;;0.40;0.15;;;7.20;62.20;;;;;;5014518;28;20034;-81
2021/03/16 08:31:54;;;;;;;1.00;0.40;;;7.20;61.50;;;;;;5014233;28;20033;-82
2021/03/16 08:34:25;;;;;;;1.13;0.22;;;7.30;62.20;;;;;;5015830;28;20026;-81
2021/03/16 08:36:51;;;;;;;0.30;0.00;;;7.30;60.90;;;;;;5014833;28;20450;-81
2021/03/16 08:39:27;;;;;;;0.80;0.45;;;7.30;58.90;;;;;;5014760;28;20084;-81
2021/03/16 08:41:58;;;;;;;0.63;0.17;;;7.30;59.50;;;;;;5014449;28;20026;-80
2021/03/16 08:44:31;;;;;;;0.40;0.10;;;7.40;61.00;;;;;;5014509;28;20037;-81
2021/03/16 08:47:14;;;;;;;0.88;0.40;;;7.40;59.10;;;;;;5013602;28;20516;-80
2021/03/16 08:49:41;;;;;;;1.05;0.30;;;7.60;59.00;;;;;;5014037;28;20031;-79
2021/03/16 08:52:23;;;;;;;2.20;2.03;;;7.80;58.40;;;;;;5013897;28;20018;-80
2021/03/16 08:54:50;;;;;;;3.47;2.40;;;8.00;58.20;;;;;;5013295;28;20100;-80
2021/03/16 08:57:20;;;;;;;4.80;2.83;;;8.20;57.90;;;;;;5013348;28;20095;-79
2021/03/16 08:59:55;;;;;;;2.03;1.50;;;8.10;55.80;;;;;;5013502;28;20037;-79
2021/03/16 09:02:21;;;;;;;3.93;3.43;;;8.00;54.50;;;;;;5013217;28;20054;-79
2021/03/16 09:04:47;;;;;;;2.22;1.83;;;8.10;55.30;;;;;;5013560;28;20666;-79
2021/03/16 09:07:30;;;;;;;0.55;0.30;;;8.20;54.20;;;;;;5014685;28;20026;-77
2021/03/16 09:10:06;;;;;;;0.30;0.13;;;8.30;53.80;;;;;;5014600;28;20084;-78
2021/03/16 09:12:34;;;;;;;1.30;0.70;;;8.40;52.40;;;;;;5014653;28;20022;-78
2021/03/16 09:15:31;;;;;;;20.55;14.40;;;8.50;51.60;;;;;;5013245;28;20075;-80
2021/03/16 09:17:59;;;;;;;9.55;5.95;;;8.70;52.20;;;;;;5009952;28;20034;-80
2021/03/16 09:20:26;;;;;;;2.38;1.73;;;8.70;51.70;;;;;;5013172;28;20125;-80
2021/03/16 09:23:05;;;;;;;1.00;0.88;;;8.50;51.00;;;;;;5013867;28;20465;-78
2021/03/16 09:25:34;;;;;;;0.60;0.30;;;8.30;51.20;;;;;;5014318;28;20032;-77
2021/03/16 09:28:02;;;;;;;0.80;0.50;;;8.40;51.90;;;;;;5013205;28;20489;-79
2021/03/16 09:30:35;;;;;;;0.35;0.15;;;8.60;52.10;;;;;;5013525;28;20030;-79
2021/03/16 09:33:02;;;;;;;0.40;0.40;;;8.50;50.20;;;;;;5012943;28;20084;-79
2021/03/16 09:35:28;;;;;;;1.30;1.20;;;8.60;50.90;;;;;;5013136;28;20036;-79
2021/03/16 09:37:54;;;;;;;2.92;0.65;;;8.70;50.60;;;;;;5012397;28;20437;-78
2021/03/16 09:40:33;;;;;;;0.22;0.10;;;8.60;51.50;;;;;;5012899;28;20037;-78
2021/03/16 09:43:00;;;;;;;0.50;0.20;;;8.50;53.10;;;;;;5012585;28;20026;-79
2021/03/16 09:45:31;;;;;;;1.42;0.10;;;8.50;51.60;;;;;;5014118;28;20026;-78
2021/03/16 09:47:58;;;;;;;0.15;0.10;;;8.20;51.90;;;;;;5013937;28;20018;-79
2021/03/16 09:50:33;;;;;;;0.90;0.45;;;8.10;54.30;;;;;;5014015;28;20037;-78
2021/03/16 09:53:01;;;;;;;3.22;0.10;;;8.00;52.60;;;;;;5012257;28;20592;-78
2021/03/16 09:55:27;;;;;;;0.22;0.10;;;8.00;52.90;;;;;;5013643;28;20054;-80
2021/03/16 09:57:53;;;;;;;0.10;0.00;;;7.80;53.40;;;;;;5012438;28;20018;-79
2021/03/16 10:00:20;;;;;;;0.40;0.20;;;7.80;53.80;;;;;;5013550;28;20056;-82
2021/03/16 10:02:46;;;;;;;0.65;0.43;;;7.80;54.30;;;;;;5013484;28;20033;-80
2021/03/16 10:05:13;;;;;;;2.47;0.25;;;7.70;53.70;;;;;;5012569;28;20030;-79
2021/03/16 10:07:40;;;;;;;2.75;0.30;;;7.90;52.50;;;;;;5012581;28;20108;-82
2021/03/16 10:10:16;;;;;;;2.15;0.85;;;8.10;51.80;;;;;;5012297;28;20493;-75
2021/03/16 10:12:51;;;;;;;0.98;0.50;;;8.40;50.90;;;;;;5013354;28;20058;-78
2021/03/16 10:15:26;;;;;;;1.23;0.30;;;8.60;50.70;;;;;;5011954;28;20030;-80
2021/03/16 10:17:53;;;;;;;1.00;0.30;;;8.80;50.60;;;;;;5013093;28;20030;-79
2021/03/16 10:20:25;;;;;;;0.55;0.10;;;8.80;49.80;;;;;;5012015;28;20041;-80
2021/03/16 10:22:53;;;;;;;0.10;0.10;;;8.70;48.60;;;;;;5012961;28;20057;-81
2021/03/16 10:25:19;;;;;;;1.35;0.20;;;8.60;49.20;;;;;;5013595;28;20060;-79
2021/03/16 10:27:54;;;;;;;0.57;0.10;;;8.80;49.10;;;;;;5012443;28;20117;-80
2021/03/16 10:30:43;;;;;;;0.30;0.20;;;9.00;48.10;;;;;;5013693;28;20460;-80
2021/03/16 10:33:11;;;;;;;0.20;0.10;;;9.20;48.30;;;;;;5011888;28;20030;-79
2021/03/16 10:35:39;;;;;;;0.40;0.10;;;9.50;47.20;;;;;;5012353;28;20351;-78
2021/03/16 10:38:06;;;;;;;0.40;0.10;;;9.60;46.30;;;;;;5011673;28;20175;-78
2021/03/16 10:40:35;;;;;;;0.30;0.10;;;9.40;45.90;;;;;;5012376;28;20034;-81
2021/03/16 10:43:02;;;;;;;0.50;0.35;;;9.20;46.80;;;;;;5013267;28;20033;-79
2021/03/16 10:45:28;;;;;;;0.38;0.20;;;9.20;47.70;;;;;;5013470;28;20056;-79
2021/03/16 10:47:54;;;;;;;0.75;0.20;;;9.00;47.60;;;;;;5013076;28;20030;-78
2021/03/16 10:50:21;;;;;;;1.85;0.32;;;9.00;47.70;;;;;;5012173;28;20036;-78
2021/03/16 10:52:47;;;;;;;0.30;0.10;;;9.00;48.60;;;;;;5013054;28;20102;-81
2021/03/16 10:55:12;;;;;;;0.30;0.17;;;9.00;46.50;;;;;;5013410;28;20136;-78
2021/03/16 10:57:38;;;;;;;0.75;0.10;;;9.20;46.20;;;;;;5012138;28;20021;-78
2021/03/16 11:00:06;;;;;;;0.75;0.10;;;9.50;47.30;;;;;;5012207;28;20038;-78
2021/03/16 11:02:32;;;;;;;1.95;0.00;;;9.30;47.70;;;;;;5012159;28;20084;-83
2021/03/16 11:04:58;;;;;;;0.32;0.10;;;9.20;47.70;;;;;;5013321;28;20026;-79
2021/03/16 11:07:24;;;;;;;1.08;0.10;;;8.90;47.90;;;;;;5011702;28;20420;-79
2021/03/16 11:09:49;;;;;;;0.05;0.00;;;8.90;50.00;;;;;;5012692;28;20108;-79
2021/03/16 11:12:17;;;;;;;0.82;0.15;;;9.20;49.60;;;;;;5012729;28;20026;-79
2021/03/16 11:14:43;;;;;;;0.00;0.00;;;9.40;48.20;;;;;;5012717;28;20068;-79
2021/03/16 11:17:08;;;;;;;0.17;0.00;;;9.40;45.40;;;;;;5012258;28;20026;-79
2021/03/16 11:19:34;;;;;;;1.88;0.43;;;9.60;44.50;;;;;;5012187;28;20041;-79
2021/03/16 11:22:00;;;;;;;0.50;0.20;;;9.80;44.40;;;;;;5012583;28;20029;-78
2021/03/16 11:24:25;;;;;;;0.43;0.20;;;9.60;43.20;;;;;;5011315;28;20520;-78
2021/03/16 11:26:51;;;;;;;0.40;0.10;;;9.50;44.50;;;;;;5011992;28;20040;-78
2021/03/16 11:29:17;;;;;;;1.00;0.10;;;9.30;44.90;;;;;;5012699;28;20069;-75
2021/03/16 11:31:42;;;;;;;0.28;0.10;;;9.20;45.90;;;;;;5013601;28;20030;-76
2021/03/16 11:34:08;;;;;;;0.60;0.20;;;9.30;45.40;;;;;;5012503;28;20022;-75
2021/03/16 11:36:34;;;;;;;2.10;0.20;;;9.40;44.90;;;;;;5011368;28;20036;-74
2021/03/16 11:38:59;;;;;;;0.40;0.20;;;9.50;45.80;;;;;;5012597;28;20093;-75
2021/03/16 11:41:25;;;;;;;2.60;0.20;;;9.50;45.60;;;;;;5012259;28;20034;-74
2021/03/16 11:43:51;;;;;;;0.22;0.10;;;9.40;47.20;;;;;;5011315;28;20033;-74
2021/03/16 11:46:17;;;;;;;1.58;0.10;;;9.20;47.60;;;;;;5011056;28;20026;-77
2021/03/16 11:48:43;;;;;;;0.60;0.10;;;9.10;47.90;;;;;;5012305;28;20542;-75
2021/03/16 11:51:09;;;;;;;2.03;1.60;;;9.00;47.30;;;;;;5012401;28;20026;-74
2021/03/16 11:53:35;;;;;;;0.68;0.20;;;8.80;47.70;;;;;;5011296;28;20080;-75
2021/03/16 11:56:00;;;;;;;1.95;0.10;;;8.70;47.00;;;;;;5010566;28;20054;-74
2021/03/16 11:58:26;;;;;;;0.20;0.10;;;8.50;47.60;;;;;;5012262;28;20393;-75
2021/03/16 12:00:52;;;;;;;0.47;0.00;;;8.20;46.30;;;;;;5014184;28;20034;-74
2021/03/16 12:03:19;;;;;;;0.25;0.00;;;8.30;47.00;;;;;;5015942;28;20054;-74
2021/03/16 12:05:45;;;;;;;0.20;0.10;;;8.50;48.10;;;;;;5015640;28;20076;-75
2021/03/16 12:08:10;;;;;;;0.17;0.08;;;8.30;46.60;;;;;;5015993;28;20025;-75
2021/03/16 12:10:36;;;;;;;0.40;0.10;;;8.30;46.60;;;;;;5015783;28;20362;-74
2021/03/16 12:13:02;;;;;;;0.57;0.00;;;8.40;46.20;;;;;;5015412;28;20034;-75
2021/03/16 12:15:28;;;;;;;0.00;0.00;;;8.70;45.00;;;;;;5015542;28;20045;-76
2021/03/16 12:17:54;;;;;;;0.38;0.10;;;8.90;44.30;;;;;;5015415;28;20030;-74
2021/03/16 12:20:21;;;;;;;0.70;0.30;;;9.10;44.40;;;;;;5014237;28;20042;-76
2021/03/16 12:22:46;;;;;;;0.30;0.10;;;9.20;43.00;;;;;;5015306;28;20481;-74
2021/03/16 12:25:12;;;;;;;0.10;0.00;;;9.20;41.40;;;;;;5013994;28;20036;-75
2021/03/16 12:27:38;;;;;;;0.65;0.00;;;9.10;41.70;;;;;;5013926;28;20484;-75
2021/03/16 12:30:07;;;;;;;0.10;0.05;;;9.00;42.10;;;;;;5015636;28;20038;-74
2021/03/16 12:32:38;;;;;;;0.63;0.10;;;9.10;43.20;;;;;;5015053;28;20080;-75
2021/03/16 12:35:13;;;;;;;2.90;0.13;;;9.00;43.10;;;;;;5015104;28;20565;-74
2021/03/16 12:37:40;;;;;;;;;;;8.80;44.60;;;;;;5015306;28;20068;-75
2021/03/16 12:40:06;;;;;;;1.20;0.30;;;8.80;43.90;;;;;;5013521;28;19913;-74
2021/03/16 12:42:33;;;;;;;1.60;0.65;;;9.00;45.10;;;;;;5014739;28;20021;-75
2021/03/16 12:44:59;;;;;;;0.73;0.50;;;9.10;43.00;;;;;;5014945;28;20046;-75
2021/03/16 12:47:25;;;;;;;0.52;0.30;;;9.40;44.50;;;;;;5013518;28;20084;-74
2021/03/16 12:49:52;;;;;;;0.90;0.22;;;9.40;42.90;;;;;;5013871;28;20030;-75
2021/03/16 12:52:18;;;;;;;1.83;1.33;;;9.40;41.80;;;;;;5014840;28;20018;-75
2021/03/16 12:54:44;;;;;;;0.20;0.20;;;9.60;42.10;;;;;;5014537;28;20058;-74
2021/03/16 12:57:10;;;;;;;1.15;0.20;;;9.40;41.60;;;;;;5013314;28;20022;-74
2021/03/16 12:59:36;;;;;;;0.73;0.30;;;9.40;43.40;;;;;;5014650;28;20041;-75